| Date | Time | Temp. (oF) | Dew Point (oF) | Rel. Hum. (%) | Press. (in.) | Wind Dir. | Wind Speed (mph) | Hourly Rainfall (in.) |
|
|---|---|---|---|---|---|---|---|---|---|
| 1 | 02/21 | 00:00 | 21 | 16 | 84 | 30.25 | NW | 4 | 0.00 |
| 2 | 02/20 | 23:00 | 19 | 17 | 95 | 30.23 | NW | 1 | 0.00 |
| 3 | 02/20 | 22:00 | 21 | 19 | 94 | 30.21 | WSW | 1 | 0.00 |
| 4 | 02/20 | 21:00 | 24 | 22 | 95 | 30.20 | NW | 3 | 0.00 |
| 5 | 02/20 | 20:00 | 24 | 22 | 95 | 30.17 | W | 3 | 0.00 |
| 6 | 02/20 | 19:00 | 25 | 23 | 94 | 30.14 | NNW | 3 | 0.00 |
| 7 | 02/20 | 18:00 | 25 | 23 | 92 | 30.09 | NNW | 7 | 0.00 |
| 8 | 02/20 | 17:00 | 26 | 22 | 85 | 30.05 | NNE | 4 | 0.00 |
| 9 | 02/20 | 16:00 | 26 | 21 | 82 | 30.04 | NE | 1 | 0.00 |
| 10 | 02/20 | 15:00 | 27 | 21 | 80 | 30.04 | NW | 1 | 0.00 |
| 11 | 02/20 | 14:00 | 28 | 16 | 62 | 30.03 | W | 4 | 0.00 |
| 12 | 02/20 | 13:00 | 30 | 9 | 41 | 30.04 | N | 6 | 0.00 |
| 13 | 02/20 | 12:00 | 29 | 8 | 42 | 30.09 | NNW | 4 | 0.00 |
| 14 | 02/20 | 11:00 | 28 | 8 | 44 | 30.12 | W | 2 | 0.00 |
| 15 | 02/20 | 10:00 | 26 | 8 | 47 | 30.15 | NNW | 4 | 0.00 |
| 16 | 02/20 | 09:00 | 26 | 9 | 49 | 30.17 | SW | 10 | 0.00 |
| 17 | 02/20 | 08:00 | 24 | 8 | 52 | 30.14 | SW | 7 | 0.00 |
| 18 | 02/20 | 07:00 | 22 | 8 | 55 | 30.13 | WSW | 5 | 0.00 |
| 19 | 02/20 | 06:00 | 23 | 7 | 52 | 30.12 | WNW | 4 | 0.00 |
| 20 | 02/20 | 05:00 | 24 | 10 | 56 | 30.10 | W | 7 | 0.00 |
| 21 | 02/20 | 04:00 | 23 | 11 | 62 | 30.07 | WSW | 8 | 0.00 |
| 22 | 02/20 | 03:00 | 22 | 12 | 66 | 30.06 | SSW | 2 | 0.00 |
| 23 | 02/20 | 02:00 | 20 | 10 | 67 | 30.04 | SSE | 1 | 0.00 |
| 24 | 02/20 | 01:00 | 21 | 8 | 58 | 30.03 | NNE | 1 | 0.00 |